Time;durP1;ratioP1;P1;durP2;ratioP2;P2;SDS_P1;SDS_P2;PMS_P1;PMS_P2;Temp;Humidity;BMP_temperature;BMP_pressure;BME280_temperature;BME280_humidity;BME280_pressure;Samples;Min_cycle;Max_cycle;Signal;HPM_P1;HPM_P2
2022/01/07 00:00:35;;;;;;;5.78;1.80;;;20.00;51.50;;;;;;5019257;28;20104;-59
2022/01/07 00:03:01;;;;;;;5.50;1.83;;;20.00;51.50;;;;;;5016594;28;20490;-59
2022/01/07 00:05:26;;;;;;;5.45;1.77;;;20.00;51.40;;;;;;5018940;28;20100;-59
2022/01/07 00:07:52;;;;;;;6.07;2.08;;;20.00;51.30;;;;;;5017591;28;20092;-59
2022/01/07 00:10:18;;;;;;;4.80;1.90;;;20.00;51.30;;;;;;5018253;28;20516;-59
2022/01/07 00:12:44;;;;;;;6.10;1.92;;;19.90;51.20;;;;;;5017680;28;20389;-59
2022/01/07 00:15:09;;;;;;;6.32;2.35;;;20.00;51.30;;;;;;5017904;28;20053;-59
2022/01/07 00:17:35;;;;;;;6.55;1.90;;;20.00;51.20;;;;;;5016841;28;20117;-59
2022/01/07 00:20:01;;;;;;;4.32;1.70;;;19.90;51.10;;;;;;5019033;28;20053;-59
2022/01/07 00:22:26;;;;;;;4.32;1.60;;;19.90;51.10;;;;;;5019008;28;20053;-59
2022/01/07 00:24:52;;;;;;;5.20;1.70;;;19.90;51.10;;;;;;5018047;28;20060;-59
2022/01/07 00:27:17;;;;;;;4.45;1.80;;;19.90;51.10;;;;;;5017695;28;20049;-59
2022/01/07 00:29:43;;;;;;;5.95;1.70;;;19.90;51.00;;;;;;5018202;28;20073;-59
2022/01/07 00:32:08;;;;;;;5.63;2.13;;;19.90;51.70;;;;;;5018958;28;20050;-60
2022/01/07 00:34:34;;;;;;;5.72;1.58;;;19.90;51.00;;;;;;5017477;28;20056;-59
2022/01/07 00:36:59;;;;;;;6.93;2.00;;;19.80;50.90;;;;;;5016701;28;20209;-59
2022/01/07 00:39:25;;;;;;;5.65;1.83;;;19.80;50.90;;;;;;5016655;28;20046;-59
2022/01/07 00:41:50;;;;;;;6.05;1.77;;;19.80;50.90;;;;;;5014091;28;20050;-59
2022/01/07 00:44:16;;;;;;;5.38;2.03;;;19.80;50.80;;;;;;5015090;28;20038;-59
2022/01/07 00:46:42;;;;;;;4.53;1.70;;;19.80;50.70;;;;;;5015469;28;20394;-59
2022/01/07 00:49:07;;;;;;;5.55;1.67;;;19.80;50.80;;;;;;5013523;28;20124;-59
2022/01/07 00:51:33;;;;;;;6.10;1.75;;;19.80;50.70;;;;;;5013716;28;20056;-59
2022/01/07 00:53:58;;;;;;;4.47;1.48;;;19.70;50.60;;;;;;5014421;28;20046;-59
2022/01/07 00:56:24;;;;;;;4.18;1.70;;;19.70;50.60;;;;;;5013409;28;20081;-59
2022/01/07 00:58:49;;;;;;;4.38;1.48;;;19.70;50.60;;;;;;5013824;28;20052;-59
2022/01/07 01:01:15;;;;;;;4.10;1.33;;;19.70;50.60;;;;;;5013892;28;20441;-59
2022/01/07 01:03:41;;;;;;;5.43;1.83;;;19.70;50.50;;;;;;5015357;28;20068;-59
2022/01/07 01:06:06;;;;;;;5.47;1.70;;;19.70;50.40;;;;;;5014729;28;20049;-59
2022/01/07 01:08:32;;;;;;;5.97;1.88;;;19.70;50.40;;;;;;5015032;28;20100;-59
2022/01/07 01:10:57;;;;;;;5.72;1.80;;;19.70;50.30;;;;;;5014243;28;20053;-59
2022/01/07 01:13:23;;;;;;;7.18;1.77;;;19.70;50.40;;;;;;5014625;28;20104;-59
2022/01/07 01:15:48;;;;;;;4.25;1.70;;;19.70;50.30;;;;;;5013666;28;20056;-59
2022/01/07 01:18:14;;;;;;;5.43;1.80;;;19.60;50.30;;;;;;5014739;28;20095;-59
2022/01/07 01:20:39;;;;;;;4.95;1.92;;;19.60;50.20;;;;;;5014061;28;20046;-59
2022/01/07 01:23:05;;;;;;;5.20;1.85;;;19.60;50.10;;;;;;5013562;28;20050;-59
2022/01/07 01:25:31;;;;;;;8.07;1.88;;;19.60;50.10;;;;;;5014975;28;20046;-59
2022/01/07 01:27:56;;;;;;;4.70;1.60;;;19.60;50.10;;;;;;5012238;28;20069;-59
2022/01/07 01:30:26;;;;;;;7.10;1.65;;;19.60;50.10;;;;;;5015014;28;20481;-59
2022/01/07 01:32:53;;;;;;;5.32;1.60;;;19.60;50.10;;;;;;5013727;28;20041;-59
2022/01/07 01:35:18;;;;;;;5.70;1.38;;;19.60;50.00;;;;;;5012779;28;20061;-59
2022/01/07 01:37:44;;;;;;;4.35;1.77;;;19.50;50.00;;;;;;5013413;28;20038;-59
2022/01/07 01:40:10;;;;;;;4.82;1.58;;;19.60;50.00;;;;;;5014036;28;20127;-59
2022/01/07 01:42:36;;;;;;;3.67;1.58;;;19.50;49.90;;;;;;5013941;28;22236;-58
2022/01/07 01:45:01;;;;;;;4.15;1.30;;;19.50;49.90;;;;;;5014472;28;20405;-59
2022/01/07 01:47:27;;;;;;;4.50;1.67;;;19.50;49.90;;;;;;5012986;28;20135;-59
2022/01/07 01:49:52;;;;;;;4.32;1.30;;;19.50;50.00;;;;;;5013910;28;20490;-59
2022/01/07 01:52:18;;;;;;;6.50;1.70;;;19.50;50.00;;;;;;5012787;28;20050;-59
2022/01/07 01:54:43;;;;;;;3.42;1.52;;;19.50;50.10;;;;;;5013041;28;20053;-59
2022/01/07 01:57:10;;;;;;;4.28;1.42;;;19.50;50.00;;;;;;5014323;28;20088;-59
2022/01/07 01:59:36;;;;;;;4.30;1.83;;;19.50;49.90;;;;;;5014422;28;20201;-59
2022/01/07 02:02:01;;;;;;;4.80;2.08;;;19.50;49.90;;;;;;5013340;28;20144;-59
2022/01/07 02:04:28;;;;;;;4.97;1.73;;;19.50;49.90;;;;;;5013988;28;20046;-59
2022/01/07 02:06:54;;;;;;;4.72;1.50;;;19.50;49.90;;;;;;5013895;28;20050;-59
2022/01/07 02:09:25;;;;;;;4.50;1.92;;;19.50;49.90;;;;;;5011973;28;20053;-59
2022/01/07 02:11:50;;;;;;;3.97;1.40;;;19.50;49.90;;;;;;5013641;28;20481;-59
2022/01/07 02:14:16;;;;;;;2.72;1.25;;;19.50;49.80;;;;;;5012738;28;20060;-59
2022/01/07 02:16:41;;;;;;;3.35;1.40;;;19.50;49.80;;;;;;5012811;28;20060;-59
2022/01/07 02:19:07;;;;;;;4.47;1.60;;;19.50;49.80;;;;;;5014011;28;20400;-59
2022/01/07 02:21:35;;;;;;;3.97;1.45;;;19.50;49.80;;;;;;5013752;28;20046;-59
2022/01/07 02:24:02;;;;;;;3.95;1.63;;;19.50;49.70;;;;;;5011479;28;20042;-59
2022/01/07 02:26:28;;;;;;;3.67;1.40;;;19.40;49.70;;;;;;5013715;28;20054;-59
2022/01/07 02:28:53;;;;;;;4.50;1.58;;;19.40;49.60;;;;;;4995925;28;20041;-59
2022/01/07 02:31:19;;;;;;;3.53;1.40;;;19.40;49.60;;;;;;5013206;28;20104;-59
2022/01/07 02:33:44;;;;;;;4.47;1.35;;;19.40;49.60;;;;;;5011865;28;20041;-59
2022/01/07 02:36:10;;;;;;;5.00;1.30;;;19.40;49.60;;;;;;5013376;28;20042;-59
2022/01/07 02:38:36;;;;;;;4.00;1.25;;;19.40;49.60;;;;;;5013049;28;20038;-59
2022/01/07 02:41:02;;;;;;;3.78;1.60;;;19.40;49.70;;;;;;5012898;28;20046;-59
2022/01/07 02:43:27;;;;;;;3.72;1.52;;;19.40;49.70;;;;;;5012830;28;20041;-59
2022/01/07 02:45:53;;;;;;;4.03;1.45;;;19.50;49.80;;;;;;5011582;28;20116;-59
2022/01/07 02:48:18;;;;;;;4.00;1.40;;;19.40;49.70;;;;;;5012109;28;20038;-59
2022/01/07 02:50:44;;;;;;;3.63;1.30;;;19.50;50.00;;;;;;5012361;28;20064;-59
2022/01/07 02:53:10;;;;;;;4.22;1.65;;;19.50;49.80;;;;;;5013371;28;20037;-59
2022/01/07 02:55:36;;;;;;;4.22;1.30;;;19.50;49.80;;;;;;5013354;28;20470;-59
2022/01/07 02:58:01;;;;;;;5.68;1.45;;;19.50;49.70;;;;;;5011167;28;20079;-59
2022/01/07 03:00:27;;;;;;;3.00;1.40;;;19.50;49.80;;;;;;5010763;28;20092;-59
2022/01/07 03:02:53;;;;;;;4.50;1.50;;;19.50;49.80;;;;;;4992228;28;20081;-59
2022/01/07 03:05:18;;;;;;;4.00;1.55;;;19.50;49.80;;;;;;4992621;28;20496;-59
2022/01/07 03:07:47;;;;;;;5.10;1.52;;;19.50;49.70;;;;;;4992694;28;20065;-59
2022/01/07 03:10:13;;;;;;;4.50;1.50;;;19.50;49.70;;;;;;4993120;28;20073;-59
2022/01/07 03:12:40;;;;;;;2.90;1.13;;;19.50;49.80;;;;;;4992973;28;20108;-59
2022/01/07 03:15:06;;;;;;;4.50;1.17;;;19.50;49.80;;;;;;4993187;28;20410;-59
2022/01/07 03:17:31;;;;;;;4.60;1.63;;;19.50;49.70;;;;;;4993614;28;20088;-59
2022/01/07 03:19:57;;;;;;;2.40;1.10;;;19.50;49.70;;;;;;4992303;28;20060;-61
2022/01/07 03:22:22;;;;;;;4.70;1.33;;;19.50;49.70;;;;;;4993443;28;20054;-59
2022/01/07 03:24:48;;;;;;;3.88;1.20;;;19.50;49.70;;;;;;4992971;28;20038;-59
2022/01/07 03:27:13;;;;;;;2.88;1.10;;;19.60;49.70;;;;;;4992772;28;20062;-59
2022/01/07 03:29:39;;;;;;;4.38;1.38;;;19.60;49.80;;;;;;4991979;28;20095;-59
2022/01/07 03:32:05;;;;;;;4.10;1.60;;;19.60;49.70;;;;;;4991428;28;20050;-59
2022/01/07 03:34:30;;;;;;;3.20;1.10;;;19.60;49.80;;;;;;4992700;28;20042;-59
2022/01/07 03:36:56;;;;;;;4.70;1.60;;;19.60;50.40;;;;;;4992202;28;20047;-59
2022/01/07 03:39:21;;;;;;;3.88;1.20;;;19.60;49.70;;;;;;4992995;28;20402;-59
2022/01/07 03:41:47;;;;;;;3.88;1.40;;;19.60;49.70;;;;;;4990768;28;20085;-59
2022/01/07 03:44:12;;;;;;;3.08;1.40;;;19.60;50.40;;;;;;4993425;28;20042;-59
2022/01/07 03:46:38;;;;;;;2.58;1.25;;;19.60;49.60;;;;;;4993282;28;20402;-59
2022/01/07 03:49:03;;;;;;;3.83;1.30;;;19.60;49.60;;;;;;4991889;28;20042;-59
2022/01/07 03:51:29;;;;;;;4.10;1.30;;;19.60;49.60;;;;;;4993404;28;20553;-59
2022/01/07 03:53:54;;;;;;;3.67;1.10;;;19.60;49.60;;;;;;4992089;28;20038;-59
2022/01/07 03:56:20;;;;;;;3.25;1.10;;;19.70;49.70;;;;;;4993321;28;20133;-59
2022/01/07 03:58:46;;;;;;;3.60;1.40;;;19.60;49.70;;;;;;4992855;28;20490;-59
2022/01/07 04:01:12;;;;;;;3.95;1.25;;;19.70;50.40;;;;;;5002222;28;20053;-59
2022/01/07 04:03:37;;;;;;;3.85;1.40;;;19.70;49.70;;;;;;5012426;28;20034;-59
2022/01/07 04:06:03;;;;;;;2.97;1.30;;;19.70;49.70;;;;;;5010999;28;20047;-59
2022/01/07 04:08:28;;;;;;;3.10;1.08;;;19.70;49.60;;;;;;5010323;28;20085;-59
2022/01/07 04:10:54;;;;;;;3.72;1.10;;;19.70;49.60;;;;;;5010005;28;20396;-59
2022/01/07 04:13:19;;;;;;;3.75;1.08;;;19.70;49.60;;;;;;5012503;28;20046;-59
2022/01/07 04:15:45;;;;;;;3.40;1.10;;;19.70;49.50;;;;;;5013247;28;20557;-59
2022/01/07 04:18:10;;;;;;;3.15;1.20;;;19.70;49.60;;;;;;5014564;28;20042;-59
2022/01/07 04:20:36;;;;;;;2.75;1.00;;;19.70;49.50;;;;;;5014794;28;20096;-59
2022/01/07 04:23:02;;;;;;;4.63;1.13;;;19.70;49.50;;;;;;5014345;28;20038;-59
2022/01/07 04:25:28;;;;;;;2.53;1.10;;;19.70;49.50;;;;;;5015073;28;20062;-59
2022/01/07 04:27:55;;;;;;;2.75;1.02;;;19.70;49.50;;;;;;5015201;28;20093;-59
2022/01/07 04:30:21;;;;;;;3.05;1.02;;;19.70;49.50;;;;;;5013657;28;20038;-59
2022/01/07 04:32:48;;;;;;;2.60;0.85;;;19.80;49.50;;;;;;5015476;28;20072;-59
2022/01/07 04:35:14;;;;;;;3.58;1.30;;;19.70;49.50;;;;;;5015638;28;20103;-58
2022/01/07 04:37:39;;;;;;;2.80;1.20;;;19.80;49.40;;;;;;5015062;28;20116;-57
2022/01/07 04:40:06;;;;;;;2.45;1.10;;;19.80;49.40;;;;;;5013886;28;20149;-57
2022/01/07 04:42:31;;;;;;;3.17;0.95;;;19.80;49.40;;;;;;5015924;28;20046;-57
2022/01/07 04:44:57;;;;;;;3.40;0.90;;;19.80;49.40;;;;;;5013431;28;20049;-58
2022/01/07 04:47:22;;;;;;;2.88;1.30;;;19.80;49.40;;;;;;5014693;28;20046;-58
2022/01/07 04:49:48;;;;;;;2.03;1.15;;;19.80;49.40;;;;;;5015397;28;20038;-58
2022/01/07 04:52:13;;;;;;;3.47;1.08;;;19.80;49.40;;;;;;5013584;28;20046;-58
2022/01/07 04:54:39;;;;;;;2.03;0.93;;;19.80;49.40;;;;;;5014214;28;20045;-58
2022/01/07 04:57:05;;;;;;;1.73;0.90;;;19.80;49.40;;;;;;5014471;28;20037;-58
2022/01/07 04:59:30;;;;;;;2.33;1.02;;;19.80;49.40;;;;;;5013881;28;20038;-58
2022/01/07 05:01:56;;;;;;;2.45;0.95;;;19.80;49.40;;;;;;5006908;28;20046;-57
2022/01/07 05:04:21;;;;;;;3.03;1.10;;;19.80;49.30;;;;;;5024405;28;20037;-58
2022/01/07 05:06:47;;;;;;;3.78;1.00;;;19.80;49.30;;;;;;5030881;28;20041;-58
2022/01/07 05:09:16;;;;;;;3.28;0.95;;;19.90;49.30;;;;;;5034647;28;20081;-58
2022/01/07 05:11:43;;;;;;;3.50;1.10;;;19.80;49.30;;;;;;5034018;28;20046;-58
2022/01/07 05:14:08;;;;;;;2.28;1.10;;;19.90;49.30;;;;;;5034815;28;20049;-58
2022/01/07 05:16:34;;;;;;;2.33;0.88;;;19.80;49.20;;;;;;5033506;28;20386;-58
2022/01/07 05:19:00;;;;;;;3.45;0.98;;;19.90;49.30;;;;;;5033868;28;20551;-58
2022/01/07 05:21:26;;;;;;;1.60;0.73;;;19.90;49.30;;;;;;5014343;28;20121;-58
2022/01/07 05:23:51;;;;;;;3.75;0.90;;;19.90;49.30;;;;;;5014817;28;20570;-58
2022/01/07 05:26:17;;;;;;;2.97;1.20;;;19.90;49.30;;;;;;5013222;28;20569;-58
2022/01/07 05:28:42;;;;;;;2.35;0.90;;;19.90;49.30;;;;;;5014590;28;20125;-59
2022/01/07 05:31:08;;;;;;;3.03;1.00;;;19.90;49.30;;;;;;5014816;28;20056;-58
2022/01/07 05:33:33;;;;;;;2.78;0.95;;;19.90;49.20;;;;;;5011864;28;20060;-58
2022/01/07 05:35:59;;;;;;;2.08;0.90;;;19.90;49.20;;;;;;5014435;28;20054;-59
2022/01/07 05:38:24;;;;;;;2.25;0.82;;;19.90;49.30;;;;;;5014789;28;20397;-58
2022/01/07 05:40:50;;;;;;;2.70;0.98;;;19.90;49.20;;;;;;5013605;28;20505;-58
2022/01/07 05:43:15;;;;;;;2.00;0.85;;;19.90;49.20;;;;;;5015013;28;20038;-59
2022/01/07 05:45:44;;;;;;;2.17;0.85;;;19.90;49.30;;;;;;5012985;28;20129;-59
2022/01/07 05:48:10;;;;;;;2.05;0.90;;;19.90;49.20;;;;;;5012436;28;20046;-59
2022/01/07 05:50:35;;;;;;;3.38;0.90;;;19.90;49.20;;;;;;5014218;28;20087;-59
2022/01/07 05:53:01;;;;;;;2.15;0.80;;;19.90;49.20;;;;;;5014259;28;20042;-59
2022/01/07 05:55:26;;;;;;;3.47;1.02;;;20.00;49.20;;;;;;5012609;28;20046;-59
2022/01/07 05:57:52;;;;;;;2.78;0.65;;;20.00;49.20;;;;;;5012984;28;20517;-59
2022/01/07 06:00:18;;;;;;;2.20;0.80;;;20.00;49.20;;;;;;5014095;28;20083;-58
2022/01/07 06:02:43;;;;;;;2.17;0.88;;;19.90;49.20;;;;;;5012137;28;20129;-59
2022/01/07 06:05:09;;;;;;;2.92;1.10;;;20.00;49.20;;;;;;5013819;28;20192;-58
2022/01/07 06:07:34;;;;;;;2.10;0.90;;;20.00;49.20;;;;;;5013269;28;20084;-59
2022/01/07 06:10:00;;;;;;;2.53;0.90;;;20.00;49.20;;;;;;5013714;28;20477;-59
2022/01/07 06:12:25;;;;;;;2.13;0.73;;;20.00;49.20;;;;;;5014040;28;20050;-58
2022/01/07 06:14:51;;;;;;;2.58;0.80;;;20.00;49.20;;;;;;5013058;28;20045;-59
2022/01/07 06:17:18;;;;;;;2.38;0.90;;;20.00;49.20;;;;;;5012954;28;20433;-58
2022/01/07 06:19:43;;;;;;;1.75;0.60;;;20.00;49.20;;;;;;5012388;28;20044;-58
2022/01/07 06:22:09;;;;;;;3.00;0.80;;;20.00;49.20;;;;;;5012811;28;20050;-58
2022/01/07 06:24:34;;;;;;;1.52;0.73;;;20.00;49.20;;;;;;5012695;28;20049;-58
2022/01/07 06:27:00;;;;;;;1.98;0.77;;;20.00;49.20;;;;;;5012659;28;20050;-58
2022/01/07 06:29:25;;;;;;;2.72;0.70;;;20.00;49.20;;;;;;5012894;28;20133;-58
2022/01/07 06:31:51;;;;;;;2.90;0.80;;;20.00;49.20;;;;;;5013527;28;20037;-58
2022/01/07 06:34:20;;;;;;;1.30;0.73;;;20.00;49.20;;;;;;5013321;28;20049;-58
2022/01/07 06:36:46;;;;;;;3.05;0.63;;;20.00;49.10;;;;;;5012614;28;20104;-58
2022/01/07 06:39:12;;;;;;;1.40;0.63;;;20.00;49.10;;;;;;5013350;28;20397;-58
2022/01/07 06:41:38;;;;;;;2.28;0.80;;;20.00;49.10;;;;;;5013591;28;20053;-58
2022/01/07 06:44:03;;;;;;;2.17;0.77;;;20.00;49.10;;;;;;5012845;28;20042;-58
2022/01/07 06:46:29;;;;;;;1.73;0.60;;;20.00;49.00;;;;;;5013726;28;20096;-58
2022/01/07 06:48:54;;;;;;;1.80;0.70;;;20.00;49.00;;;;;;5013052;28;20132;-58
2022/01/07 06:51:20;;;;;;;1.80;0.77;;;20.00;49.00;;;;;;5012859;28;20045;-58
2022/01/07 06:53:45;;;;;;;1.48;0.63;;;20.10;49.00;;;;;;5012892;28;20512;-58
2022/01/07 06:56:11;;;;;;;1.02;0.55;;;20.00;49.00;;;;;;5013531;28;20494;-58
2022/01/07 06:58:36;;;;;;;2.20;0.77;;;20.00;48.90;;;;;;5012213;28;20152;-58
2022/01/07 07:01:03;;;;;;;1.75;0.68;;;20.00;48.90;;;;;;5012864;28;20049;-58
2022/01/07 07:03:29;;;;;;;1.30;0.70;;;20.00;48.90;;;;;;5013231;28;20046;-58
2022/01/07 07:05:54;;;;;;;1.58;0.63;;;20.10;48.90;;;;;;5012322;28;20046;-58
2022/01/07 07:08:20;;;;;;;2.50;0.63;;;20.00;48.80;;;;;;5013015;28;20072;-58
2022/01/07 07:10:45;;;;;;;0.85;0.52;;;20.10;48.90;;;;;;5010652;28;20093;-58
2022/01/07 07:13:11;;;;;;;1.08;0.60;;;20.10;49.00;;;;;;5013365;28;20041;-58
2022/01/07 07:15:36;;;;;;;2.47;0.70;;;20.10;48.90;;;;;;5013290;28;20046;-59
2022/01/07 07:18:02;;;;;;;3.10;0.90;;;20.10;48.90;;;;;;5012179;28;20164;-59
2022/01/07 07:20:27;;;;;;;2.13;0.52;;;20.10;49.20;;;;;;5011722;28;20050;-58
2022/01/07 07:22:53;;;;;;;2.65;0.68;;;20.10;48.90;;;;;;5011469;28;20071;-58
2022/01/07 07:25:22;;;;;;;1.42;0.60;;;20.10;48.90;;;;;;5011125;28;20050;-58
2022/01/07 07:27:48;;;;;;;2.58;0.80;;;20.10;49.00;;;;;;5012689;28;20073;-59
2022/01/07 07:30:13;;;;;;;2.05;0.63;;;20.10;49.00;;;;;;5013192;28;20397;-59
2022/01/07 07:32:39;;;;;;;5.57;0.70;;;20.10;49.00;;;;;;5012229;28;20593;-58
2022/01/07 07:37:47;;;;;;;1.33;0.60;;;20.10;49.10;;;;;;5012600;28;20057;-59
2022/01/07 07:40:12;;;;;;;2.60;0.60;;;20.10;49.10;;;;;;5012067;28;20042;-59
2022/01/07 07:42:38;;;;;;;2.38;0.65;;;20.10;49.20;;;;;;5012657;28;20188;-57
2022/01/07 07:45:05;;;;;;;6.63;0.90;;;20.10;49.10;;;;;;5012607;28;20049;-57
2022/01/07 07:47:30;;;;;;;3.72;0.60;;;20.10;49.20;;;;;;5012124;28;20125;-57
2022/01/07 07:49:56;;;;;;;2.92;0.90;;;20.20;49.40;;;;;;5014465;28;20184;-57
2022/01/07 07:52:21;;;;;;;2.13;0.70;;;20.10;49.50;;;;;;5016636;28;20037;-57
2022/01/07 07:54:47;;;;;;;4.60;0.70;;;20.20;50.30;;;;;;5015400;28;20104;-57
2022/01/07 07:57:13;;;;;;;2.15;0.80;;;20.20;49.70;;;;;;5016554;28;20060;-57
2022/01/07 07:59:39;;;;;;;3.10;1.00;;;20.20;49.80;;;;;;5016663;28;20053;-58
2022/01/07 08:02:05;;;;;;;1.73;0.60;;;20.20;50.60;;;;;;5015607;28;20050;-57
2022/01/07 08:04:31;;;;;;;3.20;0.80;;;20.20;49.90;;;;;;5016273;28;20046;-57
2022/01/07 08:06:56;;;;;;;4.68;0.80;;;20.20;49.90;;;;;;5019232;28;20041;-58
2022/01/07 08:09:23;;;;;;;3.78;0.80;;;20.20;50.00;;;;;;5024612;28;20054;-57
2022/01/07 08:11:56;;;;;;;3.10;1.10;;;20.20;50.10;;;;;;5023966;28;20080;-57
2022/01/07 08:17:07;;;;;;;1.77;0.80;;;20.20;50.30;;;;;;4996721;28;20057;-57
2022/01/07 08:19:33;;;;;;;2.35;0.77;;;20.20;50.30;;;;;;4996689;28;20038;-57
2022/01/07 08:21:59;;;;;;;2.08;0.80;;;20.20;50.40;;;;;;4995368;28;20093;-57
2022/01/07 08:24:24;;;;;;;2.03;0.88;;;20.20;50.50;;;;;;4995116;28;20042;-57
2022/01/07 08:26:50;;;;;;;2.05;0.73;;;20.20;50.50;;;;;;4994722;28;20077;-57
2022/01/07 08:29:16;;;;;;;3.03;1.10;;;20.30;50.70;;;;;;4994538;28;20031;-57
2022/01/07 08:36:52;;;;;;;3.30;1.00;;;20.30;50.70;;;;;;4995150;28;20047;-57
2022/01/07 08:39:17;;;;;;;3.40;0.80;;;20.30;50.80;;;;;;4994862;28;20046;-57
2022/01/07 08:41:43;;;;;;;1.38;0.88;;;20.30;50.80;;;;;;4994328;28;20129;-57
2022/01/07 08:44:09;;;;;;;2.97;0.82;;;20.30;50.80;;;;;;4994865;28;20391;-57
2022/01/07 08:46:34;;;;;;;4.00;0.90;;;20.30;50.90;;;;;;4996197;28;20486;-58
2022/01/07 08:49:00;;;;;;;3.63;1.00;;;20.30;50.90;;;;;;4995458;28;20073;-59
2022/01/07 08:51:26;;;;;;;5.22;0.88;;;20.30;50.90;;;;;;4995331;28;20096;-58
2022/01/07 08:53:52;;;;;;;3.25;0.88;;;20.30;50.80;;;;;;4996012;28;20101;-57
2022/01/07 08:56:17;;;;;;;3.67;0.80;;;20.40;50.80;;;;;;4995139;28;20525;-57
2022/01/07 08:58:43;;;;;;;3.78;1.00;;;20.30;50.70;;;;;;4995353;28;20049;-57
2022/01/07 09:01:08;;;;;;;2.13;0.80;;;20.30;50.70;;;;;;4994350;28;20125;-59
2022/01/07 09:03:34;;;;;;;3.78;0.95;;;20.30;50.70;;;;;;4995084;28;20046;-62
2022/01/07 09:05:59;;;;;;;4.57;1.33;;;20.30;50.80;;;;;;4995334;28;20569;-59
2022/01/07 09:08:25;;;;;;;3.33;1.00;;;20.40;50.80;;;;;;4994149;28;20166;-59
2022/01/07 09:10:51;;;;;;;2.95;1.08;;;20.40;50.80;;;;;;4993394;28;20042;-59
2022/01/07 09:13:16;;;;;;;4.70;1.40;;;20.40;50.90;;;;;;4994180;28;20042;-58
2022/01/07 09:15:42;;;;;;;3.67;1.02;;;20.40;50.80;;;;;;4995160;28;20376;-59
2022/01/07 09:18:10;;;;;;;2.15;1.15;;;20.40;50.80;;;;;;4993701;28;20402;-59
2022/01/07 09:20:40;;;;;;;2.80;1.00;;;20.40;50.90;;;;;;4998320;28;20045;-59
2022/01/07 09:23:05;;;;;;;6.65;1.40;;;20.40;50.80;;;;;;5013459;28;20050;-59
2022/01/07 09:25:31;;;;;;;3.00;1.02;;;20.40;50.90;;;;;;5014096;28;20050;-59
2022/01/07 09:27:56;;;;;;;5.68;1.10;;;20.40;50.80;;;;;;5014438;28;20046;-59
2022/01/07 09:30:22;;;;;;;4.85;1.20;;;20.40;50.80;;;;;;5014411;28;20144;-59
2022/01/07 09:32:48;;;;;;;4.75;1.40;;;20.40;50.60;;;;;;5013818;28;20052;-59
2022/01/07 09:35:15;;;;;;;4.72;1.20;;;20.40;50.60;;;;;;5014781;28;20421;-59
2022/01/07 09:37:41;;;;;;;5.10;1.05;;;20.40;50.60;;;;;;5014256;28;20391;-59
2022/01/07 09:40:07;;;;;;;2.20;0.80;;;20.40;50.60;;;;;;5013946;28;20073;-59
2022/01/07 09:42:33;;;;;;;3.83;1.15;;;20.30;50.60;;;;;;5014916;28;20065;-58
2022/01/07 09:44:58;;;;;;;4.45;1.10;;;20.40;50.60;;;;;;5013926;28;20117;-58
2022/01/07 09:47:24;;;;;;;3.53;1.20;;;20.40;50.50;;;;;;5012279;28;20523;-59
2022/01/07 09:49:49;;;;;;;4.13;1.50;;;20.30;50.50;;;;;;5011124;28;20068;-59
2022/01/07 09:52:15;;;;;;;2.97;1.00;;;20.40;50.50;;;;;;5014028;28;20037;-59
2022/01/07 09:54:40;;;;;;;5.80;1.20;;;20.30;50.40;;;;;;5013010;28;20557;-60
2022/01/07 09:57:07;;;;;;;2.97;1.17;;;20.30;50.50;;;;;;5013851;28;20038;-59
2022/01/07 09:59:33;;;;;;;3.33;1.00;;;20.30;50.40;;;;;;5011997;28;20045;-60
2022/01/07 10:01:59;;;;;;;4.90;1.20;;;20.40;50.40;;;;;;5020028;28;20455;-59
2022/01/07 10:04:26;;;;;;;3.00;1.10;;;20.30;50.30;;;;;;5032548;28;20037;-59
2022/01/07 10:07:19;;;;;;;3.78;1.27;;;20.30;50.30;;;;;;5031646;28;20100;-59
2022/01/07 10:10:15;;;;;;;4.00;1.58;;;20.40;50.20;;;;;;5033247;28;20054;-59
2022/01/07 10:12:59;;;;;;;4.25;1.23;;;20.40;50.10;;;;;;5031419;28;20394;-59
2022/01/07 10:15:43;;;;;;;4.32;1.30;;;20.40;50.10;;;;;;5032947;28;20469;-59
2022/01/07 10:18:10;;;;;;;6.45;2.13;;;20.30;49.80;;;;;;5032666;28;20049;-60
2022/01/07 10:20:43;;;;;;;4.17;1.80;;;20.30;49.80;;;;;;5032564;28;20052;-59
2022/01/07 10:23:13;;;;;;;6.47;1.88;;;20.30;49.90;;;;;;5033789;28;20051;-59
2022/01/07 10:25:41;;;;;;;5.93;1.80;;;20.30;49.90;;;;;;5033288;28;20474;-59
2022/01/07 10:28:10;;;;;;;5.75;1.90;;;20.30;49.90;;;;;;5031324;28;20124;-58
2022/01/07 10:30:41;;;;;;;9.77;2.08;;;20.30;49.80;;;;;;5032228;28;20393;-59
2022/01/07 10:33:20;;;;;;;11.25;2.47;;;20.30;49.90;;;;;;5033435;28;20062;-60
2022/01/07 10:35:47;;;;;;;11.40;2.33;;;20.30;49.80;;;;;;5030822;28;20080;-59
2022/01/07 10:38:26;;;;;;;8.27;1.83;;;20.30;50.00;;;;;;5033083;28;20087;-60
2022/01/07 10:40:54;;;;;;;12.73;2.13;;;20.30;50.10;;;;;;5048362;28;20493;-60
2022/01/07 10:43:29;;;;;;;9.32;2.30;;;20.30;50.10;;;;;;5032551;28;20087;-59
2022/01/07 10:45:59;;;;;;;11.77;1.98;;;20.30;49.90;;;;;;5032808;28;20053;-59
2022/01/07 10:48:35;;;;;;;5.03;1.60;;;20.20;50.80;;;;;;5033059;28;20136;-59
2022/01/07 10:51:00;;;;;;;7.35;1.90;;;20.30;50.30;;;;;;5030898;28;20087;-59
2022/01/07 10:53:27;;;;;;;6.85;1.75;;;20.30;50.40;;;;;;5031415;28;20076;-59
2022/01/07 10:56:09;;;;;;;8.70;2.00;;;20.30;50.50;;;;;;5023231;28;20038;-59
2022/01/07 10:58:43;;;;;;;8.23;1.90;;;20.30;50.60;;;;;;5020463;28;20103;-60
2022/01/07 11:01:21;;;;;;;6.03;1.50;;;20.30;50.60;;;;;;5020177;28;20046;-59
2022/01/07 11:03:47;;;;;;;6.40;1.77;;;20.30;50.80;;;;;;5018886;28;20046;-60
2022/01/07 11:06:13;;;;;;;6.28;1.40;;;20.30;50.80;;;;;;5022114;28;20450;-60
2022/01/07 11:08:42;;;;;;;7.03;1.50;;;20.30;50.90;;;;;;5023054;28;20213;-60
2022/01/07 11:11:08;;;;;;;10.73;1.60;;;20.40;51.10;;;;;;5020215;28;20073;-60
2022/01/07 11:13:35;;;;;;;5.45;1.33;;;20.40;51.10;;;;;;5021667;28;20533;-60
2022/01/07 11:16:04;;;;;;;8.50;1.27;;;20.40;51.10;;;;;;5019401;28;20378;-60
2022/01/07 11:18:31;;;;;;;6.53;1.50;;;20.40;51.10;;;;;;5012440;28;20046;-60
2022/01/07 11:20:58;;;;;;;6.80;1.63;;;20.40;51.00;;;;;;5012482;28;20041;-60
2022/01/07 11:23:27;;;;;;;6.13;1.48;;;20.40;51.00;;;;;;5012308;28;20132;-60
2022/01/07 11:26:06;;;;;;;4.30;1.60;;;20.50;51.00;;;;;;5011773;28;20038;-60
2022/01/07 11:28:32;;;;;;;6.68;1.60;;;20.50;51.00;;;;;;5012602;28;20050;-60
2022/01/07 11:31:04;;;;;;;4.90;1.25;;;20.50;51.00;;;;;;5010603;28;20041;-60
2022/01/07 11:33:30;;;;;;;8.90;1.63;;;20.50;51.00;;;;;;5013015;28;20099;-61
2022/01/07 11:35:56;;;;;;;5.22;1.60;;;20.40;50.90;;;;;;5005687;28;20037;-60
2022/01/07 11:38:47;;;;;;;6.03;1.83;;;20.50;51.00;;;;;;5000161;28;20042;-60
2022/01/07 11:41:31;;;;;;;5.57;1.60;;;20.50;51.10;;;;;;5018654;28;20632;-57
2022/01/07 11:43:57;;;;;;;4.28;1.58;;;20.50;51.20;;;;;;5021541;28;20050;-59
2022/01/07 11:46:25;;;;;;;6.82;1.90;;;20.50;51.20;;;;;;5018906;28;20088;-59
2022/01/07 11:48:51;;;;;;;5.05;1.50;;;20.50;51.40;;;;;;5036735;28;20073;-58
2022/01/07 11:51:17;;;;;;;5.43;1.65;;;20.50;51.50;;;;;;5022757;28;20053;-58
2022/01/07 11:53:49;;;;;;;6.70;1.63;;;20.50;51.70;;;;;;5019790;28;20120;-59
2022/01/07 11:56:24;;;;;;;4.68;1.60;;;20.60;52.00;;;;;;5022297;28;20108;-59
2022/01/07 11:58:55;;;;;;;6.68;1.85;;;20.60;52.10;;;;;;5019418;28;20121;-59
2022/01/07 12:01:28;;;;;;;5.22;1.40;;;20.60;52.10;;;;;;5018526;28;20053;-59
2022/01/07 12:03:56;;;;;;;6.53;1.80;;;20.60;52.10;;;;;;5020483;28;20042;-59
2022/01/07 12:06:26;;;;;;;;;;;20.60;52.10;;;;;;5020759;28;20048;-58
2022/01/07 12:09:05;;;;;;;4.75;1.48;;;20.60;52.20;;;;;;5020418;28;19921;-59
2022/01/07 12:11:41;;;;;;;4.63;1.63;;;20.60;52.20;;;;;;5018545;28;20052;-59
2022/01/07 12:14:10;;;;;;;5.88;1.42;;;20.60;52.10;;;;;;5011146;28;20053;-58
2022/01/07 12:16:36;;;;;;;3.85;1.30;;;20.60;52.00;;;;;;5007650;28;20046;-59
2022/01/07 12:19:27;;;;;;;4.95;1.40;;;20.60;52.00;;;;;;5005136;28;20045;-59
2022/01/07 12:21:54;;;;;;;5.13;1.48;;;20.60;52.20;;;;;;4983272;28;20046;-58
2022/01/07 12:24:29;;;;;;;4.60;1.42;;;20.60;52.10;;;;;;5014986;28;20127;-60
2022/01/07 12:27:04;;;;;;;4.47;1.30;;;20.60;52.00;;;;;;5031748;28;20056;-59
2022/01/07 12:29:33;;;;;;;3.75;1.25;;;20.60;52.00;;;;;;5009993;28;20405;-59
2022/01/07 12:32:00;;;;;;;4.68;1.10;;;20.60;52.10;;;;;;4995738;28;20039;-59
2022/01/07 12:34:27;;;;;;;4.60;1.65;;;20.60;52.00;;;;;;4997882;28;20403;-59
2022/01/07 12:36:56;;;;;;;4.38;1.05;;;20.60;52.10;;;;;;5003459;28;20115;-59
2022/01/07 12:39:30;;;;;;;5.28;1.30;;;20.60;52.10;;;;;;5015618;28;20045;-59
2022/01/07 12:41:56;;;;;;;4.93;0.90;;;20.60;52.10;;;;;;5006259;28;20046;-59
2022/01/07 12:44:22;;;;;;;4.00;1.10;;;20.60;52.10;;;;;;5020412;28;20069;-59
2022/01/07 12:46:52;;;;;;;5.15;1.00;;;20.60;52.10;;;;;;5021368;28;20127;-59
2022/01/07 12:49:18;;;;;;;4.68;1.40;;;20.70;52.10;;;;;;5023375;28;20486;-59
2022/01/07 12:51:43;;;;;;;3.03;1.23;;;20.70;52.10;;;;;;5023371;28;20120;-59
2022/01/07 12:54:11;;;;;;;6.45;1.10;;;20.70;52.20;;;;;;5025711;28;20421;-59
2022/01/07 12:56:39;;;;;;;4.53;1.00;;;20.70;52.20;;;;;;5017366;28;20045;-66